createdAt,value
2018-08-20T00:00:41.836Z,63.75
2018-08-20T00:03:10.065Z,63.92
2018-08-20T00:05:38.881Z,64.13
2018-08-20T00:08:07.160Z,63.50
2018-08-20T00:10:35.401Z,63.35
2018-08-20T00:13:03.644Z,62.74
2018-08-20T00:15:31.872Z,63.47
2018-08-20T00:18:00.185Z,62.51
2018-08-20T00:20:28.401Z,63.34
2018-08-20T00:22:56.625Z,62.79
2018-08-20T00:25:24.868Z,62.37
2018-08-20T00:27:53.067Z,62.85
2018-08-20T00:30:21.313Z,63.59
2018-08-20T00:32:49.979Z,61.99
2018-08-20T00:35:20.368Z,62.67
2018-08-20T00:37:50.292Z,62.05
2018-08-20T00:40:18.993Z,62.06
2018-08-20T00:42:47.248Z,62.44
2018-08-20T00:45:15.496Z,62.95
2018-08-20T00:47:43.750Z,62.17
2018-08-20T00:50:12.077Z,63.02
2018-08-20T00:52:40.408Z,63.12
2018-08-20T00:55:10.676Z,63.17
2018-08-20T00:57:38.995Z,62.07
2018-08-20T01:00:08.129Z,62.56
2018-08-20T01:02:36.357Z,62.83
2018-08-20T01:05:04.661Z,63.79
2018-08-20T01:07:32.864Z,63.44
2018-08-20T01:10:01.089Z,63.24
2018-08-20T01:12:29.318Z,63.47
2018-08-20T01:14:57.533Z,62.82
2018-08-20T01:17:25.752Z,62.49
2018-08-20T01:19:53.999Z,62.87
2018-08-20T01:22:22.220Z,62.73
2018-08-20T01:24:50.848Z,62.51
2018-08-20T01:27:24.356Z,62.81
2018-08-20T01:29:53.156Z,62.92
2018-08-20T01:32:21.485Z,62.82
2018-08-20T01:34:49.744Z,63.25
2018-08-20T01:37:19.062Z,63.23
2018-08-20T01:39:47.957Z,64.36
2018-08-20T01:42:17.068Z,63.45
2018-08-20T01:44:46.380Z,64.42
2018-08-20T01:47:14.876Z,63.46
2018-08-20T01:49:43.096Z,64.62
2018-08-20T01:52:11.295Z,64.79
2018-08-20T01:54:39.521Z,63.64
2018-08-20T01:57:08.229Z,63.89
2018-08-20T01:59:37.368Z,64.24
2018-08-20T02:02:05.601Z,64.32
2018-08-20T02:04:33.861Z,65.01
2018-08-20T02:07:02.121Z,64.65
2018-08-20T02:09:30.416Z,64.78
2018-08-20T02:11:58.697Z,65.75
2018-08-20T02:14:26.941Z,65.55
2018-08-20T02:16:55.208Z,65.16
2018-08-20T02:19:23.534Z,65.12
2018-08-20T02:21:51.817Z,65.25
2018-08-20T02:24:20.057Z,65.89
2018-08-20T02:26:48.321Z,65.55
2018-08-20T02:29:16.575Z,66.34
2018-08-20T02:31:44.793Z,65.54
2018-08-20T02:34:13.085Z,66.46
2018-08-20T02:36:41.473Z,65.25
2018-08-20T02:39:11.809Z,66.51
2018-08-20T02:41:40.285Z,65.60
2018-08-20T02:44:08.897Z,66.56
2018-08-20T02:46:47.217Z,66.83
2018-08-20T02:49:16.171Z,66.29
2018-08-20T02:51:44.724Z,66.21
2018-08-20T02:54:13.222Z,66.85
2018-08-20T02:56:42.008Z,66.36
2018-08-20T02:59:10.269Z,67.71
2018-08-20T03:01:38.573Z,66.55
2018-08-20T03:04:07.481Z,67.71
2018-08-20T03:06:36.182Z,67.78
2018-08-20T03:09:07.013Z,67.68
2018-08-20T03:11:35.242Z,67.69
2018-08-20T03:14:03.898Z,67.74
2018-08-20T03:16:32.176Z,67.92
2018-08-20T03:19:00.349Z,67.30
2018-08-20T03:21:28.633Z,67.81
2018-08-20T03:23:56.924Z,68.19
2018-08-20T03:26:25.196Z,67.12
2018-08-20T03:28:53.420Z,67.17
2018-08-20T03:31:21.776Z,68.40
2018-08-20T03:33:50.007Z,68.35
2018-08-20T03:36:18.246Z,67.23
2018-08-20T03:38:46.449Z,67.34
2018-08-20T03:41:14.684Z,68.13
2018-08-20T03:43:42.912Z,67.15
2018-08-20T03:46:11.225Z,67.42
2018-08-20T03:48:39.447Z,67.30
2018-08-20T03:51:07.704Z,68.10
2018-08-20T03:53:35.970Z,67.31
2018-08-20T03:56:04.236Z,67.27
2018-08-20T03:58:32.453Z,67.46
2018-08-20T04:01:00.837Z,68.42
2018-08-20T04:03:29.056Z,68.49
2018-08-20T04:05:57.263Z,67.48
2018-08-20T04:08:25.473Z,68.47
2018-08-20T04:10:53.717Z,67.61
2018-08-20T04:13:21.977Z,67.69
2018-08-20T04:15:50.189Z,68.53
2018-08-20T04:18:18.456Z,68.28
2018-08-20T04:20:46.660Z,67.33
2018-08-20T04:23:14.884Z,66.82
2018-08-20T04:25:43.120Z,67.19
2018-08-20T04:28:11.348Z,67.02
2018-08-20T04:30:39.639Z,66.94
2018-08-20T04:33:08.229Z,67.13
2018-08-20T04:35:36.483Z,67.35
2018-08-20T04:38:04.721Z,67.55
2018-08-20T04:40:32.995Z,68.06
2018-08-20T04:43:01.196Z,67.39
2018-08-20T04:45:29.422Z,67.55
2018-08-20T04:47:57.650Z,68.65
2018-08-20T04:50:25.953Z,67.60
2018-08-20T04:52:54.089Z,68.73
2018-08-20T04:55:22.313Z,67.79
2018-08-20T04:57:50.538Z,68.39
2018-08-20T05:00:18.813Z,68.83
2018-08-20T05:02:47.053Z,68.07
2018-08-20T05:05:15.285Z,68.09
2018-08-20T05:07:43.511Z,68.39
2018-08-20T05:10:11.725Z,69.30
2018-08-20T05:12:40.028Z,69.17
2018-08-20T05:15:08.797Z,68.66
2018-08-20T05:17:37.096Z,68.74
2018-08-20T05:20:05.806Z,67.99
2018-08-20T05:22:34.028Z,68.85
2018-08-20T05:25:02.245Z,68.49
2018-08-20T05:27:30.476Z,69.40
2018-08-20T05:29:58.722Z,69.08
2018-08-20T05:32:26.960Z,68.54
2018-08-20T05:34:55.230Z,69.06
2018-08-20T05:37:23.568Z,68.42
2018-08-20T05:39:51.813Z,69.04
2018-08-20T05:42:20.052Z,68.13
2018-08-20T05:44:48.326Z,68.22
2018-08-20T05:47:16.520Z,69.31
2018-08-20T05:49:44.733Z,69.49
2018-08-20T05:52:12.965Z,68.44
2018-08-20T05:54:41.165Z,68.81
2018-08-20T05:57:09.428Z,68.08
2018-08-20T05:59:37.630Z,68.02
2018-08-20T06:02:05.919Z,69.07
2018-08-20T06:04:34.169Z,69.09
2018-08-20T06:07:02.429Z,69.10
2018-08-20T06:09:37.208Z,68.19
2018-08-20T06:12:05.441Z,68.47
2018-08-20T06:14:33.757Z,69.32
2018-08-20T06:17:02.001Z,68.80
2018-08-20T06:19:30.228Z,70.30
2018-08-20T06:21:58.480Z,69.15
2018-08-20T06:24:26.716Z,70.51
2018-08-20T06:26:54.940Z,70.44
2018-08-20T06:29:23.197Z,70.55
2018-08-20T06:31:51.435Z,70.03
2018-08-20T06:34:19.645Z,70.67
2018-08-20T06:36:47.856Z,69.31
2018-08-20T06:39:16.117Z,70.59
2018-08-20T06:41:44.348Z,69.99
2018-08-20T06:44:13.122Z,69.74
2018-08-20T06:46:41.393Z,69.86
2018-08-20T06:49:10.345Z,70.44
2018-08-20T06:51:38.855Z,69.54
2018-08-20T06:54:13.666Z,69.74
2018-08-20T06:56:41.917Z,69.56
2018-08-20T06:59:10.116Z,70.25
2018-08-20T07:01:38.348Z,70.47
2018-08-20T07:04:06.832Z,69.60
2018-08-20T07:06:35.076Z,69.98
2018-08-20T07:09:04.037Z,70.69
2018-08-20T07:11:32.296Z,69.79
2018-08-20T07:14:00.520Z,70.75
2018-08-20T07:16:28.767Z,71.17
2018-08-20T07:18:57.013Z,70.30
2018-08-20T07:21:25.229Z,71.07
2018-08-20T07:23:53.543Z,70.36
2018-08-20T07:26:21.746Z,71.03
2018-08-20T07:28:50.025Z,71.13
2018-08-20T07:31:18.273Z,70.68
2018-08-20T07:33:46.521Z,70.03
2018-08-20T07:36:14.754Z,70.80
2018-08-20T07:38:43.072Z,70.96
2018-08-20T07:41:11.305Z,71.11
2018-08-20T07:43:39.536Z,71.29
2018-08-20T07:46:07.812Z,70.23
2018-08-20T07:48:36.045Z,70.66
2018-08-20T07:51:04.273Z,71.05
2018-08-20T07:53:32.513Z,70.46
2018-08-20T07:56:00.749Z,71.58
2018-08-20T07:58:28.964Z,70.40
2018-08-20T08:00:57.265Z,70.29
2018-08-20T08:03:30.697Z,70.53
2018-08-20T08:06:00.719Z,71.16
2018-08-20T08:08:28.964Z,70.61
2018-08-20T08:10:57.180Z,71.34
2018-08-20T08:13:25.405Z,71.28
2018-08-20T08:15:53.632Z,70.69
2018-08-20T08:18:21.920Z,71.03
2018-08-20T08:20:50.195Z,70.17
2018-08-20T08:23:18.418Z,70.05
2018-08-20T08:25:46.805Z,70.44
2018-08-20T08:28:15.029Z,70.54
2018-08-20T08:30:43.287Z,71.37
2018-08-20T08:33:11.757Z,70.39
2018-08-20T08:35:40.028Z,70.55
2018-08-20T08:38:08.421Z,70.97
2018-08-20T08:40:36.605Z,70.23
2018-08-20T08:43:04.865Z,70.88
2018-08-20T08:45:33.126Z,71.42
2018-08-20T08:48:01.342Z,71.37
2018-08-20T08:50:29.580Z,72.50
2018-08-20T08:52:57.845Z,72.26
2018-08-20T08:55:26.117Z,73.07
2018-08-20T08:57:54.332Z,74.22
2018-08-20T09:00:22.777Z,75.74
2018-08-20T09:02:50.996Z,74.90
2018-08-20T09:05:19.246Z,75.21
2018-08-20T09:07:47.477Z,75.80
2018-08-20T09:10:15.741Z,76.59
2018-08-20T09:12:43.964Z,76.60
2018-08-20T09:15:15.657Z,75.42
2018-08-20T09:17:44.278Z,75.78
2018-08-20T09:20:14.388Z,75.43
2018-08-20T09:22:42.702Z,74.89
2018-08-20T09:25:12.097Z,75.08
2018-08-20T09:27:40.792Z,74.69
2018-08-20T09:30:15.322Z,75.27
2018-08-20T09:32:44.021Z,75.32
2018-08-20T09:35:12.367Z,74.65
2018-08-20T09:37:40.850Z,75.83
2018-08-20T09:40:10.132Z,76.07
2018-08-20T09:42:39.332Z,75.49
2018-08-20T09:45:07.850Z,76.09
2018-08-20T09:47:37.241Z,75.99
2018-08-20T09:50:06.753Z,75.82
2018-08-20T09:52:35.016Z,75.98
2018-08-20T09:55:03.288Z,75.07
2018-08-20T09:57:31.576Z,75.30
2018-08-20T09:59:59.816Z,74.46
2018-08-20T10:02:28.308Z,75.24
2018-08-20T10:04:56.810Z,74.49
2018-08-20T10:07:25.042Z,75.11
2018-08-20T10:09:53.351Z,75.45
2018-08-20T10:12:21.728Z,75.45
2018-08-20T10:14:49.970Z,75.40
2018-08-20T10:17:18.221Z,75.09
2018-08-20T10:19:46.437Z,74.76
2018-08-20T10:22:14.696Z,75.25
2018-08-20T10:24:42.933Z,75.10
2018-08-20T10:27:11.137Z,76.04
2018-08-20T10:29:39.357Z,75.54
2018-08-20T10:32:07.647Z,75.91
2018-08-20T10:34:35.817Z,75.65
2018-08-20T10:37:04.068Z,75.73
2018-08-20T10:39:32.338Z,75.66
2018-08-20T10:42:00.645Z,75.95
2018-08-20T10:44:28.877Z,74.85
2018-08-20T10:46:57.085Z,75.74
2018-08-20T10:49:25.315Z,75.97
2018-08-20T10:51:53.545Z,75.29
2018-08-20T10:54:21.780Z,75.36
2018-08-20T10:56:49.988Z,76.07
2018-08-20T10:59:18.232Z,76.10
2018-08-20T11:01:46.516Z,75.19
2018-08-20T11:04:14.729Z,75.11
2018-08-20T11:06:42.929Z,75.22
2018-08-20T11:09:11.230Z,75.90
2018-08-20T11:11:39.432Z,75.19
2018-08-20T11:14:07.697Z,76.24
2018-08-20T11:16:35.941Z,76.38
2018-08-20T11:19:04.227Z,76.45
2018-08-20T11:21:32.447Z,76.33
2018-08-20T11:24:00.677Z,75.39
2018-08-20T11:26:28.949Z,75.38
2018-08-20T11:28:57.197Z,76.58
2018-08-20T11:31:25.428Z,75.54
2018-08-20T11:33:53.700Z,76.54
2018-08-20T11:36:21.931Z,75.78
2018-08-20T11:38:50.140Z,75.02
2018-08-20T11:41:18.344Z,76.02
2018-08-20T11:43:46.779Z,74.91
2018-08-20T11:46:15.024Z,76.05
2018-08-20T11:48:43.240Z,75.05
2018-08-20T11:51:11.517Z,75.11
2018-08-20T11:53:39.797Z,75.55
2018-08-20T11:56:08.033Z,75.50
2018-08-20T11:58:36.245Z,76.13
2018-08-20T12:01:04.525Z,74.76
2018-08-20T12:03:32.754Z,75.59
2018-08-20T12:06:01.242Z,74.97
2018-08-20T12:08:29.605Z,75.13
2018-08-20T12:10:57.925Z,74.22
2018-08-20T12:13:26.132Z,73.40
2018-08-20T12:15:54.406Z,73.51
2018-08-20T12:18:22.642Z,74.41
2018-08-20T12:20:50.877Z,74.20
2018-08-20T12:23:19.188Z,73.83
2018-08-20T12:25:47.460Z,72.74
2018-08-20T12:28:15.795Z,72.93
2018-08-20T12:30:43.942Z,73.13
2018-08-20T12:33:12.208Z,73.25
2018-08-20T12:35:40.428Z,71.79
2018-08-20T12:38:08.676Z,71.13
2018-08-20T12:40:36.897Z,71.75
2018-08-20T12:43:05.137Z,71.50
2018-08-20T12:45:33.485Z,70.93
2018-08-20T12:48:01.707Z,71.04
2018-08-20T12:50:29.961Z,71.70
2018-08-20T12:52:58.296Z,71.35
2018-08-20T12:55:26.543Z,71.84
2018-08-20T12:57:54.757Z,71.38
2018-08-20T13:00:23.010Z,71.29
2018-08-20T13:02:51.194Z,72.12
2018-08-20T13:05:19.424Z,72.11
2018-08-20T13:07:47.624Z,70.36
2018-08-20T13:10:15.844Z,71.12
2018-08-20T13:12:44.049Z,69.41
2018-08-20T13:15:12.288Z,70.36
2018-08-20T13:17:40.493Z,69.37
2018-08-20T13:20:08.748Z,69.86
2018-08-20T13:22:36.973Z,69.26
2018-08-20T13:25:06.129Z,68.76
2018-08-20T13:27:34.352Z,68.69
2018-08-20T13:30:02.610Z,68.58
2018-08-20T13:32:30.835Z,68.74
2018-08-20T13:34:59.077Z,67.64
2018-08-20T13:37:27.335Z,68.72
2018-08-20T13:39:55.552Z,67.41
2018-08-20T13:42:23.767Z,69.02
2018-08-20T13:44:52.008Z,67.86
2018-08-20T13:47:20.249Z,66.53
2018-08-20T13:49:48.528Z,65.63
2018-08-20T13:52:16.813Z,62.67
2018-08-20T13:54:45.056Z,60.06
2018-08-20T13:57:13.257Z,57.18
2018-08-20T13:59:41.477Z,57.54
2018-08-20T14:02:09.780Z,55.83
2018-08-20T14:04:37.980Z,53.88
2018-08-20T14:07:06.229Z,53.51
2018-08-20T14:09:34.448Z,53.35
2018-08-20T14:12:02.728Z,53.28
2018-08-20T14:14:30.941Z,52.59
2018-08-20T14:16:59.153Z,52.24
2018-08-20T14:19:27.416Z,52.99
2018-08-20T14:21:55.637Z,54.29
2018-08-20T14:24:23.864Z,54.00
2018-08-20T14:26:52.089Z,53.30
2018-08-20T14:29:20.305Z,54.00
2018-08-20T14:31:54.336Z,54.15
2018-08-20T14:34:22.543Z,54.42
2018-08-20T14:36:50.798Z,54.85
2018-08-20T14:39:19.037Z,54.93
2018-08-20T14:41:47.285Z,55.36
2018-08-20T14:44:15.513Z,55.55
2018-08-20T14:46:44.040Z,56.30
2018-08-20T14:49:12.257Z,56.88
2018-08-20T14:51:40.526Z,56.88
2018-08-20T14:54:08.741Z,57.55
2018-08-20T14:56:36.977Z,57.93
2018-08-20T14:59:05.272Z,59.00
2018-08-20T15:01:33.537Z,59.73
2018-08-20T15:04:01.778Z,60.10
2018-08-20T15:06:30.039Z,60.73
2018-08-20T15:08:58.293Z,60.96
2018-08-20T15:11:26.501Z,61.03
2018-08-20T15:13:54.763Z,60.69
2018-08-20T15:16:22.959Z,61.81
2018-08-20T15:18:51.212Z,63.78
2018-08-20T15:21:19.432Z,63.95
2018-08-20T15:23:47.672Z,64.48
2018-08-20T15:26:15.909Z,65.15
2018-08-20T15:28:44.124Z,65.20
2018-08-20T15:31:12.379Z,65.57
2018-08-20T15:33:40.613Z,64.68
2018-08-20T15:36:08.865Z,63.92
2018-08-20T15:38:37.104Z,64.40
2018-08-20T15:41:05.318Z,65.98
2018-08-20T15:43:33.600Z,65.37
2018-08-20T15:46:01.821Z,66.73
2018-08-20T15:48:30.069Z,67.66
2018-08-20T15:50:58.292Z,68.03
2018-08-20T15:53:26.517Z,68.07
2018-08-20T15:55:54.737Z,69.94
2018-08-20T15:58:22.953Z,69.63
2018-08-20T16:00:51.181Z,69.60
2018-08-20T16:03:19.416Z,68.31
2018-08-20T16:05:47.633Z,68.55
2018-08-20T16:08:15.891Z,67.97
2018-08-20T16:10:44.175Z,68.06
2018-08-20T16:13:12.434Z,69.13
2018-08-20T16:15:40.644Z,67.13
2018-08-20T16:18:08.992Z,64.81
2018-08-20T16:20:37.213Z,63.72
2018-08-20T16:23:05.954Z,65.07
2018-08-20T16:25:34.200Z,63.62
2018-08-20T16:28:02.429Z,63.30
2018-08-20T16:30:30.657Z,63.86
2018-08-20T16:32:58.929Z,63.01
2018-08-20T16:35:27.159Z,63.53
2018-08-20T16:37:55.451Z,62.33
2018-08-20T16:40:27.197Z,62.51
2018-08-20T16:42:55.465Z,62.81
2018-08-20T16:45:25.034Z,62.01
2018-08-20T16:47:53.226Z,61.97
2018-08-20T16:50:21.506Z,62.59
2018-08-20T16:52:50.033Z,62.22
2018-08-20T16:55:18.265Z,63.67
2018-08-20T16:57:46.485Z,62.43
2018-08-20T17:00:14.700Z,63.59
2018-08-20T17:02:43.628Z,61.68
2018-08-20T17:05:13.173Z,62.52
2018-08-20T17:07:41.733Z,63.66
2018-08-20T17:10:12.449Z,63.10
2018-08-20T17:12:41.289Z,62.54
2018-08-20T17:15:13.468Z,62.84
2018-08-20T17:17:42.008Z,62.99
2018-08-20T17:20:11.677Z,63.87
2018-08-20T17:22:40.276Z,62.73
2018-08-20T17:25:09.072Z,63.54
2018-08-20T17:27:37.328Z,64.03
2018-08-20T17:30:07.785Z,64.57
2018-08-20T17:32:36.045Z,64.39
2018-08-20T17:35:05.846Z,63.49
2018-08-20T17:37:34.125Z,63.24
2018-08-20T17:40:05.513Z,64.21
2018-08-20T17:42:34.377Z,63.36
2018-08-20T17:45:03.171Z,63.79
2018-08-20T17:47:32.076Z,64.21
2018-08-20T17:50:00.992Z,63.36
2018-08-20T17:52:40.013Z,63.89
2018-08-20T17:55:08.506Z,65.31
2018-08-20T17:57:36.700Z,65.17
2018-08-20T18:00:19.357Z,65.21
2018-08-20T18:02:47.589Z,64.74
2018-08-20T18:05:16.241Z,65.39
2018-08-20T18:07:44.508Z,65.53
2018-08-20T18:10:12.778Z,65.33
2018-08-20T18:12:40.992Z,65.90
2018-08-20T18:15:09.293Z,66.72
2018-08-20T18:17:37.505Z,66.26
2018-08-20T18:20:05.837Z,65.69
2018-08-20T18:22:34.132Z,66.03
2018-08-20T18:25:03.361Z,65.89
2018-08-20T18:27:37.505Z,65.67
2018-08-20T18:30:05.859Z,65.84
2018-08-20T18:32:34.292Z,65.46
2018-08-20T18:35:02.645Z,65.98
2018-08-20T18:37:36.281Z,66.63
2018-08-20T18:40:05.619Z,65.80
2018-08-20T18:42:39.073Z,66.89
2018-08-20T18:45:07.498Z,66.25
2018-08-20T18:47:35.737Z,66.18
2018-08-20T18:50:04.017Z,67.31
2018-08-20T18:52:32.593Z,66.75
2018-08-20T18:55:01.138Z,67.72
2018-08-20T18:57:31.521Z,67.73
2018-08-20T19:00:01.090Z,66.75
2018-08-20T19:02:47.602Z,66.32
2018-08-20T19:05:17.759Z,65.73
2018-08-20T19:07:46.160Z,66.16
2018-08-20T19:10:18.773Z,65.20
2018-08-20T19:12:47.030Z,64.89
2018-08-20T19:15:26.757Z,64.33
2018-08-20T19:17:55.021Z,64.37
2018-08-20T19:20:29.885Z,65.31
2018-08-20T19:22:58.089Z,64.91
2018-08-20T19:25:26.375Z,64.39
2018-08-20T19:27:54.621Z,64.16
2018-08-20T19:30:24.988Z,63.95
2018-08-20T19:32:53.234Z,64.16
2018-08-20T19:35:21.484Z,63.28
2018-08-20T19:37:49.753Z,64.19
2018-08-20T19:40:18.089Z,62.96
2018-08-20T19:42:46.450Z,64.04
2018-08-20T19:45:14.797Z,64.53
2018-08-20T19:47:43.072Z,64.07
2018-08-20T19:50:12.185Z,65.03
2018-08-20T19:52:40.456Z,64.39
2018-08-20T19:55:11.049Z,64.85
2018-08-20T19:57:39.311Z,64.54
2018-08-20T20:00:11.566Z,65.32
2018-08-20T20:02:42.902Z,65.35
2018-08-20T20:05:14.448Z,65.28
2018-08-20T20:07:56.897Z,64.78
2018-08-20T20:10:25.146Z,65.62
2018-08-20T20:12:55.320Z,64.71
2018-08-20T20:15:24.412Z,64.91
2018-08-20T20:17:53.377Z,63.85
2018-08-20T20:20:21.559Z,65.03
2018-08-20T20:22:49.781Z,65.02
2018-08-20T20:25:18.065Z,64.79
2018-08-20T20:27:46.313Z,65.13
2018-08-20T20:30:14.576Z,64.43
2018-08-20T20:32:42.797Z,64.66
2018-08-20T20:35:11.537Z,64.54
2018-08-20T20:37:39.781Z,65.01
2018-08-20T20:40:08.440Z,65.55
2018-08-20T20:42:36.661Z,64.53
2018-08-20T20:45:05.039Z,64.98
2018-08-20T20:47:33.385Z,65.52
2018-08-20T20:50:01.623Z,64.92
2018-08-20T20:52:29.869Z,64.65
2018-08-20T20:54:58.081Z,65.02
2018-08-20T20:57:26.313Z,65.59
2018-08-20T20:59:54.525Z,65.92
2018-08-20T21:02:22.741Z,66.24
2018-08-20T21:04:50.949Z,64.93
2018-08-20T21:07:23.349Z,65.13
2018-08-20T21:09:51.568Z,64.96
2018-08-20T21:12:19.833Z,65.20
2018-08-20T21:14:48.056Z,65.74
2018-08-20T21:17:16.312Z,65.69
2018-08-20T21:19:44.636Z,66.41
2018-08-20T21:22:12.836Z,66.28
2018-08-20T21:24:41.053Z,66.46
2018-08-20T21:27:14.413Z,66.37
2018-08-20T21:29:42.989Z,66.90
2018-08-20T21:32:11.241Z,65.86
2018-08-20T21:34:42.230Z,66.99
2018-08-20T21:37:11.143Z,67.06
2018-08-20T21:39:39.837Z,66.12
2018-08-20T21:42:08.125Z,66.07
2018-08-20T21:44:36.366Z,67.37
2018-08-20T21:47:24.204Z,66.97
2018-08-20T21:49:52.457Z,65.70
2018-08-20T21:52:20.681Z,66.59
2018-08-20T21:54:48.904Z,66.39
2018-08-20T21:57:17.160Z,65.61
2018-08-20T21:59:56.873Z,66.37
2018-08-20T22:02:27.187Z,66.79
2018-08-20T22:04:55.486Z,66.93
2018-08-20T22:07:23.717Z,65.94
2018-08-20T22:09:52.045Z,67.14
2018-08-20T22:12:20.309Z,66.30
2018-08-20T22:14:48.535Z,67.51
2018-08-20T22:17:22.173Z,67.46
2018-08-20T22:19:50.456Z,67.96
2018-08-20T22:22:22.475Z,66.94
2018-08-20T22:25:05.161Z,67.17
2018-08-20T22:27:40.652Z,67.55
2018-08-20T22:30:08.924Z,67.75
2018-08-20T22:32:37.196Z,67.76
2018-08-20T22:35:11.141Z,67.66
2018-08-20T22:37:39.389Z,67.61
2018-08-20T22:40:07.638Z,68.11
2018-08-20T22:42:48.464Z,68.92
2018-08-20T22:45:17.981Z,68.82
2018-08-20T22:47:47.100Z,67.54
2018-08-20T22:50:15.337Z,68.66
2018-08-20T22:52:51.345Z,67.75
2018-08-20T22:55:21.585Z,67.86
2018-08-20T22:58:01.127Z,67.42
2018-08-20T23:00:29.482Z,67.30
2018-08-20T23:02:57.924Z,67.95
2018-08-20T23:05:29.277Z,68.08
2018-08-20T23:08:04.764Z,67.88
2018-08-20T23:10:33.037Z,68.03
2018-08-20T23:13:01.257Z,67.96
2018-08-20T23:15:29.516Z,67.60
2018-08-20T23:17:57.753Z,67.68
2018-08-20T23:20:30.426Z,68.68
2018-08-20T23:22:58.713Z,68.36
2018-08-20T23:25:26.956Z,69.56
2018-08-20T23:27:55.188Z,68.42
2018-08-20T23:30:23.408Z,68.28
2018-08-20T23:32:51.670Z,68.26
2018-08-20T23:35:19.837Z,68.84
2018-08-20T23:40:22.534Z,69.38
2018-08-20T23:42:50.757Z,70.01
2018-08-20T23:45:18.957Z,70.24
2018-08-20T23:47:47.177Z,69.87
2018-08-20T23:50:15.433Z,70.29
2018-08-20T23:52:43.665Z,70.52
2018-08-20T23:55:11.910Z,70.62
2018-08-20T23:57:40.140Z,69.40
